createdAt,value
2022-09-11T00:00:36.566Z,1.33
2022-09-11T00:03:39.090Z,1.13
2022-09-11T00:06:41.548Z,3.72
2022-09-11T00:09:44.192Z,2.22
2022-09-11T00:12:49.599Z,4.15
2022-09-11T00:15:52.843Z,1.37
2022-09-11T00:18:57.448Z,2.80
2022-09-11T00:22:00.005Z,2.90
2022-09-11T00:25:02.663Z,3.03
2022-09-11T00:28:06.615Z,2.72
2022-09-11T00:31:12.430Z,2.33
2022-09-11T00:34:15.007Z,2.40
2022-09-11T00:37:17.606Z,2.17
2022-09-11T00:40:20.613Z,1.92
2022-09-11T00:43:24.947Z,2.40
2022-09-11T00:46:34.120Z,3.43
2022-09-11T00:49:39.749Z,1.37
2022-09-11T00:52:45.023Z,3.00
2022-09-11T00:55:50.887Z,1.80
2022-09-11T00:58:55.832Z,1.50
2022-09-11T01:01:58.748Z,2.23
2022-09-11T01:05:01.511Z,0.88
2022-09-11T01:08:04.562Z,1.67
2022-09-11T01:11:18.595Z,1.13
2022-09-11T01:14:34.482Z,3.33
2022-09-11T01:17:43.986Z,2.37
2022-09-11T01:21:02.133Z,0.70
2022-09-11T01:24:19.061Z,0.87
2022-09-11T01:27:31.910Z,3.70
2022-09-11T01:30:38.246Z,8.05
2022-09-11T01:33:44.803Z,2.17
2022-09-11T01:36:53.692Z,4.33
2022-09-11T01:40:01.714Z,3.00
2022-09-11T01:43:09.594Z,4.63
2022-09-11T01:46:13.979Z,3.43
2022-09-11T01:49:19.959Z,1.80
2022-09-11T01:52:28.034Z,2.93
2022-09-11T01:55:32.870Z,4.73
2022-09-11T01:58:37.948Z,4.40
2022-09-11T02:01:43.411Z,2.30
2022-09-11T02:04:47.707Z,2.47
2022-09-11T02:07:53.872Z,5.67
2022-09-11T02:11:03.395Z,2.93
2022-09-11T02:14:10.618Z,1.40
2022-09-11T02:17:18.610Z,3.00
2022-09-11T02:20:21.634Z,2.23
2022-09-11T02:23:24.128Z,2.78
2022-09-11T02:26:28.194Z,2.03
2022-09-11T02:29:32.473Z,2.77
2022-09-11T02:32:37.485Z,2.30
2022-09-11T02:35:48.636Z,4.83
2022-09-11T02:38:59.821Z,5.17
2022-09-11T02:42:14.042Z,4.30
2022-09-11T02:45:28.720Z,1.53
2022-09-11T02:48:40.693Z,2.23
2022-09-11T02:51:56.289Z,2.63
2022-09-11T02:55:08.058Z,2.20
2022-09-11T02:58:16.034Z,3.50
2022-09-11T03:01:19.869Z,2.83
2022-09-11T03:04:24.754Z,2.17
2022-09-11T03:07:27.488Z,4.07
2022-09-11T03:10:30.044Z,1.92
2022-09-11T03:13:33.420Z,2.38
2022-09-11T03:19:40.177Z,2.80
2022-09-11T03:22:42.672Z,2.47
2022-09-11T03:25:45.272Z,1.63
2022-09-11T03:28:47.765Z,2.90
2022-09-11T03:31:52.003Z,4.20
2022-09-11T03:34:54.625Z,1.50
2022-09-11T03:37:57.536Z,6.22
2022-09-11T03:41:00.084Z,1.45
2022-09-11T03:44:02.822Z,4.75
2022-09-11T03:47:07.113Z,2.22
2022-09-11T03:50:10.752Z,5.03
2022-09-11T03:53:14.044Z,3.00
2022-09-11T03:56:16.591Z,2.08
2022-09-11T03:59:20.256Z,1.98
2022-09-11T04:02:24.419Z,3.07
2022-09-11T04:05:27.335Z,1.60
2022-09-11T04:08:33.469Z,4.97
2022-09-11T04:11:38.780Z,5.17
2022-09-11T04:14:41.938Z,5.10
2022-09-11T04:17:46.156Z,3.58
2022-09-11T04:20:48.668Z,5.40
2022-09-11T04:23:52.421Z,2.33
2022-09-11T04:26:59.984Z,6.03
2022-09-11T04:30:03.233Z,4.93
2022-09-11T04:33:07.435Z,2.90
2022-09-11T04:36:12.959Z,7.73
2022-09-11T04:39:16.030Z,3.80
2022-09-11T04:42:18.560Z,3.10
2022-09-11T04:45:21.285Z,2.72
2022-09-11T04:48:25.327Z,3.17
2022-09-11T04:51:30.134Z,4.30
2022-09-11T04:54:33.824Z,6.30
2022-09-11T04:57:36.316Z,6.00
2022-09-11T05:00:39.303Z,4.93
2022-09-11T05:03:43.881Z,3.90
2022-09-11T05:06:48.218Z,6.00
2022-09-11T05:09:52.591Z,4.30
2022-09-11T05:12:55.133Z,4.00
2022-09-11T05:16:02.065Z,9.95
2022-09-11T05:19:06.523Z,5.53
2022-09-11T05:22:09.045Z,3.57
2022-09-11T05:25:11.636Z,4.85
2022-09-11T05:28:14.117Z,5.35
2022-09-11T05:31:17.759Z,5.32
2022-09-11T05:34:22.140Z,4.37
2022-09-11T05:37:25.400Z,8.77
2022-09-11T05:40:27.966Z,5.28
2022-09-11T05:43:31.002Z,4.72
2022-09-11T05:46:33.511Z,4.38
2022-09-11T05:49:37.312Z,4.05
2022-09-11T05:52:40.035Z,3.43
2022-09-11T05:55:42.583Z,5.47
2022-09-11T05:58:46.210Z,8.73
2022-09-11T06:01:48.729Z,7.57
2022-09-11T06:04:52.792Z,4.60
2022-09-11T06:07:55.277Z,4.30
2022-09-11T06:10:59.574Z,4.55
2022-09-11T06:14:02.215Z,5.43
2022-09-11T06:17:06.371Z,4.20
2022-09-11T06:20:12.383Z,7.33
2022-09-11T06:23:14.996Z,7.67
2022-09-11T06:26:19.587Z,7.47
2022-09-11T06:29:22.396Z,5.43
2022-09-11T06:32:25.009Z,4.55
2022-09-11T06:35:29.903Z,4.30
2022-09-11T06:38:33.094Z,4.27
2022-09-11T06:41:35.785Z,4.63
2022-09-11T06:44:38.416Z,4.13
2022-09-11T06:47:41.027Z,4.55
2022-09-11T06:50:44.890Z,5.68
2022-09-11T06:53:48.628Z,7.17
2022-09-11T06:56:51.430Z,6.77
2022-09-11T06:59:53.949Z,6.25
2022-09-11T07:02:56.911Z,6.10
2022-09-11T07:06:01.007Z,5.68
2022-09-11T07:09:03.724Z,7.73
2022-09-11T07:12:06.631Z,4.35
2022-09-11T07:15:10.768Z,6.32
2022-09-11T07:18:13.266Z,6.40
2022-09-11T07:21:19.025Z,6.97
2022-09-11T07:24:21.604Z,3.80
2022-09-11T07:27:24.507Z,5.72
2022-09-11T07:30:27.208Z,5.18
2022-09-11T07:33:29.910Z,4.38
2022-09-11T07:36:37.435Z,4.53
2022-09-11T07:39:40.217Z,4.77
2022-09-11T07:42:42.841Z,6.60
2022-09-11T07:45:45.525Z,6.40
2022-09-11T07:48:48.053Z,13.95
2022-09-11T07:51:52.415Z,6.38
2022-09-11T07:54:55.001Z,6.77
2022-09-11T07:57:57.523Z,4.95
2022-09-11T08:01:00.155Z,9.18
2022-09-11T08:04:04.196Z,6.32
2022-09-11T08:07:08.055Z,8.23
2022-09-11T08:10:26.813Z,7.50
2022-09-11T08:13:30.658Z,4.40
2022-09-11T08:16:34.228Z,6.97
2022-09-11T08:19:36.820Z,10.00
2022-09-11T08:22:42.001Z,5.47
2022-09-11T08:25:45.144Z,5.20
2022-09-11T08:28:48.028Z,4.68
2022-09-11T08:31:50.473Z,7.25
2022-09-11T08:34:52.976Z,7.50
2022-09-11T08:37:56.776Z,5.18
2022-09-11T08:40:59.922Z,3.77
2022-09-11T08:44:05.420Z,6.63
2022-09-11T08:47:11.226Z,4.83
2022-09-11T08:50:20.367Z,5.30
2022-09-11T08:53:25.045Z,5.17
2022-09-11T08:56:30.107Z,5.10
2022-09-11T08:59:42.010Z,7.60
2022-09-11T09:03:20.687Z,4.77
2022-09-11T09:06:35.549Z,6.57
2022-09-11T09:09:45.708Z,5.97
2022-09-11T09:12:53.145Z,6.30
2022-09-11T09:16:05.805Z,4.17
2022-09-11T09:19:14.359Z,5.55
2022-09-11T09:22:20.640Z,4.87
2022-09-11T09:25:25.325Z,10.30
2022-09-11T09:28:32.638Z,4.80
2022-09-11T09:31:38.933Z,5.43
2022-09-11T09:34:43.227Z,3.73
2022-09-11T09:37:45.800Z,3.10
2022-09-11T09:40:56.249Z,4.53
2022-09-11T09:44:05.091Z,3.90
2022-09-11T09:47:12.004Z,3.80
2022-09-11T09:50:20.178Z,3.97
2022-09-11T09:53:30.522Z,4.87
2022-09-11T09:56:37.631Z,3.10
2022-09-11T09:59:42.160Z,4.20
2022-09-11T10:02:49.190Z,3.13
2022-09-11T10:05:54.534Z,3.17
2022-09-11T10:09:01.367Z,3.37
2022-09-11T10:12:08.768Z,4.77
2022-09-11T10:15:20.116Z,4.77
2022-09-11T10:18:41.696Z,2.63
2022-09-11T10:21:44.388Z,3.57
2022-09-11T10:24:46.899Z,4.32
2022-09-11T10:28:05.206Z,3.60
2022-09-11T10:31:08.700Z,6.47
2022-09-11T10:34:20.132Z,5.23
2022-09-11T10:37:25.918Z,6.00
2022-09-11T10:40:28.728Z,5.03
2022-09-11T10:43:37.290Z,4.82
2022-09-11T10:46:41.252Z,4.90
2022-09-11T10:49:44.635Z,5.17
2022-09-11T10:56:13.612Z,3.43
2022-09-11T10:59:20.558Z,4.28
2022-09-11T11:02:31.615Z,5.20
2022-09-11T11:05:46.293Z,6.00
2022-09-11T11:09:06.494Z,7.73
2022-09-11T11:12:22.547Z,4.90
2022-09-11T11:15:38.763Z,4.40
2022-09-11T11:18:54.614Z,6.90
2022-09-11T11:22:04.020Z,3.63
2022-09-11T11:25:14.142Z,4.33
2022-09-11T11:28:28.191Z,5.17
2022-09-11T11:31:42.500Z,6.60
2022-09-11T11:35:01.435Z,3.27
2022-09-11T11:38:11.192Z,3.80
2022-09-11T11:41:16.501Z,5.80
2022-09-11T11:44:26.057Z,5.50
2022-09-11T11:47:33.177Z,8.20
2022-09-11T11:50:39.010Z,3.13
2022-09-11T11:53:44.345Z,5.13
2022-09-11T11:56:50.181Z,4.13
2022-09-11T11:59:55.894Z,3.40
2022-09-11T12:03:03.613Z,3.17
2022-09-11T12:06:07.482Z,4.03
2022-09-11T12:09:10.678Z,3.33
2022-09-11T12:12:13.959Z,3.03
2022-09-11T12:15:20.122Z,3.37
2022-09-11T12:18:25.789Z,5.65
2022-09-11T12:21:38.120Z,3.85
2022-09-11T12:24:59.670Z,3.13
2022-09-11T12:28:22.233Z,3.40
2022-09-11T12:31:24.815Z,4.50
2022-09-11T12:35:06.652Z,3.58
2022-09-11T12:38:20.293Z,3.45
2022-09-11T12:41:26.540Z,4.55
2022-09-11T12:44:32.132Z,5.05
2022-09-11T12:47:38.200Z,4.82
2022-09-11T12:50:50.230Z,4.30
2022-09-11T12:53:55.490Z,3.03
2022-09-11T12:57:02.617Z,7.60
2022-09-11T13:00:09.528Z,3.57
2022-09-11T13:03:18.827Z,4.93
2022-09-11T13:06:23.454Z,4.13
2022-09-11T13:09:29.246Z,3.57
2022-09-11T13:12:52.745Z,3.70
2022-09-11T13:19:05.954Z,3.10
2022-09-11T13:22:22.842Z,6.20
2022-09-11T13:25:26.572Z,3.35
2022-09-11T13:28:30.972Z,4.60
2022-09-11T13:31:35.503Z,5.80
2022-09-11T13:34:38.531Z,6.15
2022-09-11T13:37:45.455Z,3.17
2022-09-11T13:40:50.067Z,4.40
2022-09-11T13:43:58.305Z,3.92
2022-09-11T13:47:01.581Z,3.72
2022-09-11T13:50:07.588Z,5.40
2022-09-11T13:53:11.466Z,4.90
2022-09-11T13:56:21.080Z,5.20
2022-09-11T13:59:45.554Z,4.97
2022-09-11T14:02:50.729Z,3.90
2022-09-11T14:05:55.292Z,3.73
2022-09-11T14:08:59.677Z,4.87
2022-09-11T14:12:03.433Z,4.27
2022-09-11T14:15:11.013Z,6.33
2022-09-11T14:18:22.450Z,4.50
2022-09-11T14:21:27.382Z,5.20
2022-09-11T14:24:36.264Z,5.18
2022-09-11T14:27:43.041Z,5.35
2022-09-11T14:30:45.574Z,5.35
2022-09-11T14:33:48.128Z,3.30
2022-09-11T14:36:53.771Z,3.63
2022-09-11T14:39:59.955Z,3.25
2022-09-11T14:43:03.382Z,4.10
2022-09-11T14:46:06.077Z,2.15
2022-09-11T14:49:09.474Z,3.38
2022-09-11T14:52:14.308Z,2.45
2022-09-11T14:55:19.544Z,2.00
2022-09-11T14:58:22.094Z,1.60
2022-09-11T15:01:25.617Z,2.85
2022-09-11T15:04:29.637Z,2.90
2022-09-11T15:07:32.817Z,3.85
2022-09-11T15:10:38.613Z,1.98
2022-09-11T15:13:57.906Z,2.10
2022-09-11T15:17:05.917Z,2.65
2022-09-11T15:20:10.198Z,1.35
2022-09-11T15:23:12.996Z,2.00
2022-09-11T15:26:16.940Z,8.20
2022-09-11T15:29:19.469Z,3.72
2022-09-11T15:32:22.172Z,2.53
2022-09-11T15:35:28.478Z,6.60
2022-09-11T15:38:33.548Z,3.10
2022-09-11T15:41:37.353Z,1.70
2022-09-11T15:44:40.093Z,2.45
2022-09-11T15:47:42.774Z,2.28
2022-09-11T15:50:45.498Z,2.22
2022-09-11T15:53:48.553Z,4.00
2022-09-11T15:56:53.094Z,2.28
2022-09-11T15:59:55.657Z,3.67
2022-09-11T16:02:58.278Z,1.95
2022-09-11T16:06:01.556Z,3.17
2022-09-11T16:09:06.986Z,1.70
2022-09-11T16:12:11.069Z,3.28
2022-09-11T16:15:13.726Z,1.80
2022-09-11T16:18:19.219Z,2.35
2022-09-11T16:21:23.103Z,1.67
2022-09-11T16:24:26.193Z,3.78
2022-09-11T16:27:30.147Z,1.77
2022-09-11T16:30:43.322Z,2.08
2022-09-11T16:33:47.862Z,3.08
2022-09-11T16:36:50.779Z,2.45
2022-09-11T16:39:53.403Z,2.03
2022-09-11T16:42:57.446Z,2.22
2022-09-11T16:46:00.049Z,2.65
2022-09-11T16:52:05.185Z,2.42
2022-09-11T16:55:09.477Z,4.00
2022-09-11T16:58:14.232Z,2.60
2022-09-11T17:01:18.235Z,4.28
2022-09-11T17:04:20.776Z,3.35
2022-09-11T17:07:26.338Z,3.70
2022-09-11T17:10:29.003Z,5.05
2022-09-11T17:13:33.218Z,3.08
2022-09-11T17:16:35.774Z,3.07
2022-09-11T17:19:38.474Z,3.33
2022-09-11T17:22:41.395Z,4.15
2022-09-11T17:25:45.614Z,4.00
2022-09-11T17:28:50.458Z,4.57
2022-09-11T17:32:10.566Z,5.77
2022-09-11T17:35:16.048Z,4.30
2022-09-11T17:41:21.849Z,4.87
2022-09-11T17:44:25.799Z,4.27
2022-09-11T17:47:31.768Z,3.43
2022-09-11T17:50:35.387Z,5.20
2022-09-11T17:53:39.733Z,4.37
2022-09-11T17:56:42.363Z,4.13
2022-09-11T17:59:48.922Z,9.40
2022-09-11T18:02:52.740Z,9.37
2022-09-11T18:05:55.662Z,10.80
2022-09-11T18:09:01.749Z,12.10
2022-09-11T18:12:04.837Z,11.07
2022-09-11T18:15:10.133Z,7.07
2022-09-11T18:18:12.703Z,13.23
2022-09-11T18:21:15.918Z,10.63
2022-09-11T18:27:24.254Z,14.07
2022-09-11T18:30:29.798Z,9.87
2022-09-11T18:33:32.937Z,8.80
2022-09-11T18:36:35.545Z,6.93
2022-09-11T18:39:38.380Z,6.65
2022-09-11T18:42:41.610Z,8.43
2022-09-11T18:45:45.663Z,8.05
2022-09-11T18:48:48.845Z,6.13
2022-09-11T18:51:51.822Z,6.57
2022-09-11T18:54:54.403Z,6.78
2022-09-11T18:57:57.189Z,5.57
2022-09-11T19:01:01.652Z,7.50
2022-09-11T19:04:07.436Z,6.53
2022-09-11T19:07:10.135Z,7.17
2022-09-11T19:10:13.520Z,9.15
2022-09-11T19:16:21.132Z,15.23
2022-09-11T19:19:23.948Z,9.47
2022-09-11T19:22:28.028Z,9.52
2022-09-11T19:25:30.754Z,6.50
2022-09-11T19:28:35.471Z,8.38
2022-09-11T19:31:40.387Z,8.30
2022-09-11T19:34:47.011Z,15.67
2022-09-11T19:37:50.277Z,16.67
2022-09-11T19:40:53.474Z,11.40
2022-09-11T19:43:56.319Z,7.20
2022-09-11T19:47:00.230Z,9.52
2022-09-11T19:50:02.789Z,6.13
2022-09-11T19:53:05.324Z,8.18
2022-09-11T19:56:07.875Z,8.35
2022-09-11T19:59:10.787Z,7.32
2022-09-11T20:02:14.880Z,6.20
2022-09-11T20:05:17.343Z,9.90
2022-09-11T20:08:19.929Z,7.07
2022-09-11T20:11:25.227Z,9.27
2022-09-11T20:14:27.844Z,8.40
2022-09-11T20:17:31.683Z,7.95
2022-09-11T20:20:34.835Z,6.77
2022-09-11T20:23:37.964Z,4.68
2022-09-11T20:26:40.564Z,13.75
2022-09-11T20:29:43.497Z,7.13
2022-09-11T20:32:47.335Z,7.45
2022-09-11T20:35:49.862Z,8.77
2022-09-11T20:38:53.428Z,8.15
2022-09-11T20:41:56.011Z,6.70
2022-09-11T20:45:00.466Z,7.07
2022-09-11T20:48:04.897Z,7.97
2022-09-11T20:51:10.046Z,5.97
2022-09-11T20:54:12.634Z,5.50
2022-09-11T20:57:16.299Z,8.23
2022-09-11T21:00:18.964Z,5.43
2022-09-11T21:03:23.209Z,7.60
2022-09-11T21:06:27.076Z,6.10
2022-09-11T21:09:29.677Z,7.13
2022-09-11T21:12:32.199Z,6.75
2022-09-11T21:15:34.770Z,7.67
2022-09-11T21:18:39.602Z,8.52
2022-09-11T21:21:42.697Z,10.33
2022-09-11T21:24:45.273Z,9.45
2022-09-11T21:27:48.956Z,9.15
2022-09-11T21:30:51.651Z,7.53
2022-09-11T21:33:55.695Z,8.30
2022-09-11T21:36:58.220Z,6.60
2022-09-11T21:40:00.743Z,7.23
2022-09-11T21:43:03.385Z,6.57
2022-09-11T21:46:07.707Z,8.82
2022-09-11T21:49:11.827Z,6.80
2022-09-11T21:52:14.353Z,9.93
2022-09-11T21:55:17.006Z,8.53
2022-09-11T21:58:21.463Z,6.03
2022-09-11T22:01:25.485Z,8.53
2022-09-11T22:04:29.560Z,6.53
2022-09-11T22:07:32.109Z,9.80
2022-09-11T22:10:34.690Z,7.78
2022-09-11T22:13:37.303Z,12.55
2022-09-11T22:16:39.890Z,9.68
2022-09-11T22:19:46.039Z,6.93
2022-09-11T22:22:48.889Z,9.80
2022-09-11T22:25:58.862Z,7.57
2022-09-11T22:29:01.459Z,9.80
2022-09-11T22:32:04.393Z,6.50
2022-09-11T22:35:09.085Z,6.72
2022-09-11T22:38:11.605Z,9.10
2022-09-11T22:41:14.132Z,12.03
2022-09-11T22:44:17.023Z,8.57
2022-09-11T22:47:19.555Z,9.43
2022-09-11T22:50:24.612Z,9.13
2022-09-11T22:53:28.877Z,9.53
2022-09-11T22:56:31.557Z,8.60
2022-09-11T22:59:34.030Z,9.85
2022-09-11T23:02:37.165Z,8.20
2022-09-11T23:05:58.796Z,8.00
2022-09-11T23:09:01.802Z,9.20
2022-09-11T23:12:04.538Z,7.72
2022-09-11T23:15:08.094Z,7.47
2022-09-11T23:21:14.865Z,10.83
2022-09-11T23:24:17.509Z,8.60
2022-09-11T23:27:20.083Z,8.80
2022-09-11T23:30:22.677Z,9.07
2022-09-11T23:33:26.064Z,8.77
2022-09-11T23:36:32.429Z,7.40
2022-09-11T23:39:35.057Z,8.30
2022-09-11T23:42:38.903Z,9.07
2022-09-11T23:45:41.369Z,10.32
2022-09-11T23:48:44.166Z,14.20
2022-09-11T23:51:50.147Z,11.20
2022-09-11T23:54:52.748Z,9.07
2022-09-11T23:57:55.321Z,8.25
